Time;durP1;ratioP1;P1;durP2;ratioP2;P2;SDS_P1;SDS_P2;PMS_P1;PMS_P2;Temp;Humidity;BMP_temperature;BMP_pressure;BME280_temperature;BME280_humidity;BME280_pressure;Samples;Min_cycle;Max_cycle;Signal;HPM_P1;HPM_P2
2022/04/25 00:00:55;;;;;;;11.75;9.82;;;;;;;;;;5053923;28;20045;-25
2022/04/25 00:03:21;;;;;;;16.17;10.38;;;;;;;;;;5053643;28;20140;-25
2022/04/25 00:05:47;;;;;;;14.75;10.38;;;;;;;;;;5052797;28;20037;-24
2022/04/25 00:08:13;;;;;;;14.77;10.40;;;;;;;;;;5053922;28;20072;-25
2022/04/25 00:10:39;;;;;;;12.65;10.35;;;;;;;;;;5053791;28;20118;-24
2022/04/25 00:13:06;;;;;;;13.10;10.10;;;;;;;;;;5053794;28;20449;-27
2022/04/25 00:15:32;;;;;;;12.98;10.05;;;;;;;;;;5035855;28;20043;-25
2022/04/25 00:17:58;;;;;;;12.65;10.25;;;;;;;;;;5053284;28;20041;-25
2022/04/25 00:20:24;;;;;;;13.70;10.85;;;;;;;;;;5035718;28;20053;-25
2022/04/25 00:22:50;;;;;;;13.48;10.25;;;;;;;;;;5035293;28;20041;-25
2022/04/25 00:25:16;;;;;;;15.15;11.68;;;;;;;;;;5053095;28;20077;-25
2022/04/25 00:27:42;;;;;;;14.55;12.07;;;;;;;;;;5053465;28;20041;-25
2022/04/25 00:30:09;;;;;;;14.75;11.43;;;;;;;;;;5053304;28;20048;-25
2022/04/25 00:32:35;;;;;;;14.30;11.77;;;;;;;;;;5053448;28;20098;-24
2022/04/25 00:35:03;;;;;;;14.23;11.43;;;;;;;;;;5052933;28;20041;-25
2022/04/25 00:37:29;;;;;;;12.50;10.65;;;;;;;;;;5052948;28;20170;-26
2022/04/25 00:39:55;;;;;;;14.93;12.02;;;;;;;;;;5053441;28;20437;-25
2022/04/25 00:42:21;;;;;;;14.82;12.30;;;;;;;;;;5053114;28;20158;-24
2022/04/25 00:44:47;;;;;;;15.48;12.45;;;;;;;;;;5065404;28;20036;-26
2022/04/25 00:47:14;;;;;;;14.30;12.00;;;;;;;;;;5072752;28;20036;-28
2022/04/25 00:49:41;;;;;;;15.70;12.45;;;;;;;;;;5072566;28;20071;-25
2022/04/25 00:52:07;;;;;;;14.35;11.93;;;;;;;;;;5072874;28;20056;-25
2022/04/25 00:54:33;;;;;;;15.90;12.90;;;;;;;;;;5072239;28;20490;-24
2022/04/25 00:57:00;;;;;;;15.80;11.55;;;;;;;;;;5072634;28;20050;-24
2022/04/25 00:59:26;;;;;;;17.13;13.27;;;;;;;;;;5072363;28;20052;-24
2022/04/25 01:01:52;;;;;;;15.48;12.48;;;;;;;;;;5072840;28;20506;-26
2022/04/25 01:04:20;;;;;;;18.73;12.95;;;;;;;;;;5072918;28;20036;-25
2022/04/25 01:06:46;;;;;;;15.38;12.60;;;;;;;;;;5073623;28;20051;-25
2022/04/25 01:09:12;;;;;;;14.60;12.52;;;;;;;;;;5072991;28;20059;-28
2022/04/25 01:11:38;;;;;;;13.57;12.18;;;;;;;;;;5071596;28;20083;-32
2022/04/25 01:14:11;;;;;;;13.77;11.27;;;;;;;;;;5071080;28;20051;-28
2022/04/25 01:16:37;;;;;;;15.15;11.90;;;;;;;;;;5071387;28;20040;-30
2022/04/25 01:19:03;;;;;;;18.17;12.80;;;;;;;;;;5071767;28;20048;-28
2022/04/25 01:21:30;;;;;;;15.07;12.32;;;;;;;;;;5070539;28;20078;-30
2022/04/25 01:29:33;;;;;;;15.23;13.25;;;;;;;;;;5047557;28;20044;-29
2022/04/25 01:31:59;;;;;;;14.98;12.60;;;;;;;;;;5071629;28;20478;-31
2022/04/25 01:34:25;;;;;;;17.08;12.75;;;;;;;;;;5071304;28;20486;-28
2022/04/25 01:36:51;;;;;;;14.95;13.13;;;;;;;;;;5070981;28;20036;-30
2022/04/25 01:39:17;;;;;;;14.65;11.70;;;;;;;;;;5071332;28;20446;-30
2022/04/25 01:41:44;;;;;;;19.23;13.63;;;;;;;;;;5070765;28;20040;-30
2022/04/25 01:44:11;;;;;;;16.60;13.93;;;;;;;;;;5071416;28;20048;-30
2022/04/25 01:46:39;;;;;;;17.70;13.65;;;;;;;;;;5065310;28;20043;-30
2022/04/25 01:49:05;;;;;;;17.75;13.80;;;;;;;;;;5056224;28;20123;-28
2022/04/25 01:51:32;;;;;;;19.25;14.43;;;;;;;;;;5058510;28;20090;-29
2022/04/25 01:53:58;;;;;;;19.23;14.55;;;;;;;;;;5071491;28;20045;-30
2022/04/25 01:56:24;;;;;;;17.05;13.23;;;;;;;;;;5065409;28;20040;-29
2022/04/25 01:58:50;;;;;;;16.48;13.23;;;;;;;;;;5070928;28;20033;-31
2022/04/25 02:01:16;;;;;;;21.05;15.27;;;;;;;;;;5053009;28;20041;-30
2022/04/25 02:03:43;;;;;;;20.13;14.40;;;;;;;;;;5070956;28;20036;-30
2022/04/25 02:06:10;;;;;;;19.13;14.23;;;;;;;;;;5070359;28;20120;-29
2022/04/25 02:08:37;;;;;;;19.50;14.68;;;;;;;;;;5070275;28;20037;-30
2022/04/25 02:11:19;;;;;;;23.02;14.68;;;;;;;;;;5067350;28;20068;-29
2022/04/25 02:13:45;;;;;;;18.67;14.23;;;;;;;;;;5070304;28;20120;-30
2022/04/25 02:16:11;;;;;;;22.20;15.77;;;;;;;;;;5071375;28;20053;-29
2022/04/25 02:18:40;;;;;;;19.92;15.25;;;;;;;;;;5069614;28;20040;-32
2022/04/25 02:21:06;;;;;;;21.27;15.30;;;;;;;;;;5051137;28;20461;-33
2022/04/25 02:23:33;;;;;;;21.70;14.85;;;;;;;;;;5063210;28;20165;-30
2022/04/25 02:26:00;;;;;;;22.70;14.85;;;;;;;;;;5071024;28;20080;-32
2022/04/25 02:28:26;;;;;;;22.13;15.35;;;;;;;;;;5072291;28;20093;-32
2022/04/25 02:30:52;;;;;;;20.33;14.40;;;;;;;;;;5074903;28;20090;-31
2022/04/25 02:33:19;;;;;;;21.35;15.02;;;;;;;;;;5073805;28;20032;-31
2022/04/25 02:35:45;;;;;;;21.73;15.40;;;;;;;;;;5074714;28;20047;-30
2022/04/25 02:38:11;;;;;;;19.83;15.18;;;;;;;;;;5073379;28;20559;-34
2022/04/25 02:40:38;;;;;;;22.73;15.95;;;;;;;;;;5073853;28;20529;-35
2022/04/25 02:43:04;;;;;;;21.58;15.95;;;;;;;;;;5074586;28;20094;-30
2022/04/25 02:45:30;;;;;;;22.52;15.85;;;;;;;;;;5074017;28;20040;-30
2022/04/25 02:47:56;;;;;;;20.25;14.30;;;;;;;;;;5073781;28;20040;-30
2022/04/25 02:50:22;;;;;;;21.33;14.40;;;;;;;;;;5074671;28;20041;-30
2022/04/25 02:52:53;;;;;;;18.38;15.05;;;;;;;;;;5074002;28;20470;-31
2022/04/25 02:55:19;;;;;;;19.98;14.88;;;;;;;;;;5073202;28;20052;-32
2022/04/25 02:57:45;;;;;;;18.30;15.70;;;;;;;;;;5074586;28;20037;-30
2022/04/25 03:00:11;;;;;;;20.20;15.20;;;;;;;;;;5076143;28;20040;-27
2022/04/25 03:02:37;;;;;;;16.08;13.48;;;;;;;;;;5074539;28;20052;-25
2022/04/25 03:05:04;;;;;;;19.23;14.18;;;;;;;;;;5074952;28;20048;-25
2022/04/25 03:07:30;;;;;;;19.08;14.18;;;;;;;;;;5074610;28;20049;-25
2022/04/25 03:09:56;;;;;;;18.90;13.13;;;;;;;;;;5074573;28;20068;-26
2022/04/25 03:12:22;;;;;;;21.90;14.38;;;;;;;;;;5074654;28;20094;-25
2022/04/25 03:14:48;;;;;;;18.10;14.32;;;;;;;;;;5074443;28;20040;-25
2022/04/25 03:17:14;;;;;;;17.70;14.05;;;;;;;;;;5074612;28;20040;-27
2022/04/25 03:19:41;;;;;;;19.27;13.02;;;;;;;;;;5074249;28;20127;-26
2022/04/25 03:22:07;;;;;;;21.90;14.82;;;;;;;;;;5074131;28;20059;-24
2022/04/25 03:24:33;;;;;;;20.83;13.52;;;;;;;;;;5056261;28;20053;-25
2022/04/25 03:26:59;;;;;;;21.80;14.38;;;;;;;;;;5074607;28;20060;-25
2022/04/25 03:29:25;;;;;;;20.17;14.45;;;;;;;;;;5074434;28;20457;-24
2022/04/25 03:31:52;;;;;;;20.88;13.75;;;;;;;;;;5073956;28;20038;-24
2022/04/25 03:34:18;;;;;;;20.30;14.15;;;;;;;;;;5074048;28;20115;-25
2022/04/25 03:36:51;;;;;;;19.80;13.90;;;;;;;;;;5073992;28;20036;-26
2022/04/25 03:39:18;;;;;;;19.80;13.67;;;;;;;;;;5073558;28;20048;-25
2022/04/25 03:41:44;;;;;;;17.92;13.25;;;;;;;;;;5073883;28;20048;-25
2022/04/25 03:44:10;;;;;;;18.65;14.32;;;;;;;;;;5073940;28;20036;-26
2022/04/25 03:46:36;;;;;;;22.90;14.27;;;;;;;;;;5073449;28;20040;-25
2022/04/25 03:49:02;;;;;;;20.33;14.10;;;;;;;;;;5074252;28;20456;-25
2022/04/25 03:51:29;;;;;;;21.00;13.95;;;;;;;;;;5074206;28;20455;-25
2022/04/25 03:53:55;;;;;;;18.48;14.95;;;;;;;;;;5074253;28;20119;-25
2022/04/25 03:59:06;;;;;;;18.95;14.05;;;;;;;;;;5073867;28;20047;-25
2022/04/25 04:01:35;;;;;;;18.17;13.77;;;;;;;;;;5073899;28;20062;-25
2022/04/25 04:04:04;;;;;;;19.52;13.57;;;;;;;;;;5074119;28;20123;-26
2022/04/25 04:06:32;;;;;;;17.88;13.10;;;;;;;;;;5073459;28;20037;-26
2022/04/25 04:08:58;;;;;;;17.27;13.75;;;;;;;;;;5073847;28;20494;-27
2022/04/25 04:11:46;;;;;;;18.38;13.98;;;;;;;;;;5073875;28;20068;-25
2022/04/25 04:14:10;;;;;;;17.13;12.90;;;;;;;;;;5073054;28;20083;-27
2022/04/25 04:16:36;;;;;;;16.50;12.95;;;;;;;;;;5073567;28;20594;-26
2022/04/25 04:19:02;;;;;;;19.13;13.10;;;;;;;;;;5073957;28;20403;-28
2022/04/25 04:21:29;;;;;;;20.42;14.20;;;;;;;;;;5073315;28;20355;-27
2022/04/25 04:23:55;;;;;;;17.42;13.55;;;;;;;;;;5073551;28;20123;-25
2022/04/25 04:26:21;;;;;;;16.92;14.07;;;;;;;;;;5073690;28;20029;-25
2022/04/25 04:28:47;;;;;;;20.17;13.90;;;;;;;;;;5073695;28;20052;-28
2022/04/25 04:31:13;;;;;;;19.75;13.68;;;;;;;;;;5072664;28;20043;-27
2022/04/25 04:33:39;;;;;;;20.42;13.93;;;;;;;;;;5073503;28;20036;-27
2022/04/25 04:36:17;;;;;;;19.30;13.23;;;;;;;;;;5073305;28;20577;-27
2022/04/25 04:38:44;;;;;;;19.08;14.35;;;;;;;;;;5072666;28;20111;-26
2022/04/25 04:41:10;;;;;;;20.30;13.00;;;;;;;;;;5072649;28;20040;-26
2022/04/25 04:43:36;;;;;;;18.52;13.63;;;;;;;;;;5072542;28;20110;-27
2022/04/25 04:46:02;;;;;;;18.83;13.77;;;;;;;;;;5072218;28;20036;-26
2022/04/25 04:48:28;;;;;;;19.50;13.68;;;;;;;;;;5072641;28;20415;-25
2022/04/25 04:50:58;;;;;;;19.65;13.80;;;;;;;;;;5071883;28;20040;-26
2022/04/25 04:53:24;;;;;;;18.00;14.05;;;;;;;;;;5072709;28;20055;-29
2022/04/25 04:55:51;;;;;;;20.25;13.13;;;;;;;;;;5072503;28;20076;-26
2022/04/25 04:58:21;;;;;;;17.38;12.13;;;;;;;;;;5072423;28;20055;-27
2022/04/25 05:00:47;;;;;;;21.27;13.38;;;;;;;;;;5072010;28;20071;-26
2022/04/25 05:03:13;;;;;;;22.27;13.88;;;;;;;;;;5070455;28;20047;-27
2022/04/25 05:05:40;;;;;;;17.30;12.27;;;;;;;;;;5069789;28;20483;-26
2022/04/25 05:08:06;;;;;;;19.23;13.40;;;;;;;;;;5070245;28;20075;-26
2022/04/25 05:10:32;;;;;;;15.68;12.00;;;;;;;;;;5070730;28;20070;-32
2022/04/25 05:12:58;;;;;;;17.65;13.75;;;;;;;;;;5070347;28;20044;-28
2022/04/25 05:15:25;;;;;;;18.13;12.13;;;;;;;;;;5069295;28;20097;-29
2022/04/25 05:17:53;;;;;;;20.48;13.60;;;;;;;;;;5067705;28;20459;-28
2022/04/25 05:20:20;;;;;;;16.85;12.65;;;;;;;;;;5065384;28;20386;-28
2022/04/25 05:22:46;;;;;;;21.27;13.10;;;;;;;;;;5065998;28;20037;-30
2022/04/25 05:25:14;;;;;;;20.00;13.18;;;;;;;;;;5066855;28;20032;-29
2022/04/25 05:27:40;;;;;;;17.17;12.00;;;;;;;;;;5066456;28;20047;-28
2022/04/25 05:30:07;;;;;;;18.50;13.85;;;;;;;;;;5049401;28;20049;-30
2022/04/25 05:32:46;;;;;;;18.10;12.57;;;;;;;;;;5070615;28;20036;-29
2022/04/25 05:35:13;;;;;;;15.30;11.40;;;;;;;;;;5070253;28;20071;-31
2022/04/25 05:37:39;;;;;;;15.45;11.75;;;;;;;;;;5069454;28;20562;-28
2022/04/25 05:40:06;;;;;;;17.05;12.30;;;;;;;;;;5070897;28;20045;-29
2022/04/25 05:42:32;;;;;;;18.73;13.88;;;;;;;;;;5069846;28;20040;-29
2022/04/25 05:44:59;;;;;;;16.38;12.40;;;;;;;;;;5069662;28;20046;-29
2022/04/25 05:47:25;;;;;;;20.00;13.25;;;;;;;;;;5069661;28;20055;-29
2022/04/25 05:52:36;;;;;;;18.67;12.18;;;;;;;;;;5069846;28;20406;-29
2022/04/25 05:55:03;;;;;;;17.40;11.43;;;;;;;;;;5070424;28;20508;-28
2022/04/25 05:57:29;;;;;;;16.25;12.25;;;;;;;;;;5070134;28;20041;-29
2022/04/25 05:59:55;;;;;;;16.50;11.98;;;;;;;;;;5070660;28;20402;-28
2022/04/25 06:02:21;;;;;;;15.90;11.73;;;;;;;;;;5050695;28;20037;-29
2022/04/25 06:04:47;;;;;;;17.63;11.85;;;;;;;;;;5050129;28;20041;-28
2022/04/25 06:07:13;;;;;;;19.15;11.65;;;;;;;;;;5068320;28;20063;-28
2022/04/25 06:09:39;;;;;;;14.10;12.00;;;;;;;;;;5069975;28;20086;-30
2022/04/25 06:12:06;;;;;;;18.02;12.32;;;;;;;;;;5070141;28;20491;-28
2022/04/25 06:14:32;;;;;;;14.27;11.68;;;;;;;;;;5067576;28;20490;-29
2022/04/25 06:16:59;;;;;;;18.98;12.70;;;;;;;;;;5069493;28;20044;-29
2022/04/25 06:19:25;;;;;;;15.73;11.95;;;;;;;;;;5070417;28;20111;-28
2022/04/25 06:21:51;;;;;;;14.80;11.25;;;;;;;;;;5051790;28;20041;-30
2022/04/25 06:24:18;;;;;;;16.00;12.63;;;;;;;;;;5070520;28;20379;-30
2022/04/25 06:26:44;;;;;;;16.15;11.57;;;;;;;;;;5070282;28;20036;-29
2022/04/25 06:29:10;;;;;;;18.27;12.45;;;;;;;;;;5070525;28;20049;-29
2022/04/25 06:31:36;;;;;;;15.45;12.35;;;;;;;;;;5069701;28;20115;-28
2022/04/25 06:34:02;;;;;;;16.23;11.75;;;;;;;;;;5070172;28;20043;-29
2022/04/25 06:36:28;;;;;;;17.90;12.82;;;;;;;;;;5069881;28;20040;-29
2022/04/25 06:38:54;;;;;;;20.40;13.18;;;;;;;;;;5069432;28;20506;-28
2022/04/25 06:41:21;;;;;;;16.92;12.20;;;;;;;;;;5069744;28;20044;-28
2022/04/25 06:43:47;;;;;;;14.73;11.82;;;;;;;;;;5069965;28;20390;-29
2022/04/25 06:46:13;;;;;;;15.68;12.50;;;;;;;;;;5070552;28;20046;-29
2022/04/25 06:48:39;;;;;;;17.63;12.40;;;;;;;;;;5070381;28;20033;-30
2022/04/25 06:51:05;;;;;;;19.25;13.77;;;;;;;;;;5070209;28;20044;-32
2022/04/25 06:53:31;;;;;;;18.42;13.73;;;;;;;;;;5069591;28;20033;-31
2022/04/25 06:55:58;;;;;;;19.30;13.40;;;;;;;;;;5069906;28;20060;-31
2022/04/25 06:58:26;;;;;;;20.45;13.50;;;;;;;;;;5069937;28;20094;-30
2022/04/25 07:00:52;;;;;;;19.55;14.05;;;;;;;;;;5070579;28;20391;-29
2022/04/25 07:03:18;;;;;;;18.90;13.68;;;;;;;;;;5070081;28;20044;-30
2022/04/25 07:05:44;;;;;;;19.05;13.57;;;;;;;;;;5070254;28;20043;-30
2022/04/25 07:08:10;;;;;;;18.45;13.32;;;;;;;;;;5069866;28;20040;-29
2022/04/25 07:10:36;;;;;;;18.23;12.98;;;;;;;;;;5069148;28;20166;-29
2022/04/25 07:13:02;;;;;;;18.77;13.63;;;;;;;;;;5069969;28;20490;-31
2022/04/25 07:15:29;;;;;;;20.17;13.63;;;;;;;;;;5072773;28;20516;-30
2022/04/25 07:17:55;;;;;;;17.85;13.20;;;;;;;;;;5055454;28;20084;-29
2022/04/25 07:20:21;;;;;;;20.08;13.07;;;;;;;;;;5072499;28;20052;-30
2022/04/25 07:31:02;;;;;;;17.25;13.35;;;;;;;;;;5072664;28;20043;-30
2022/04/25 07:33:28;;;;;;;19.38;13.63;;;;;;;;;;5073323;28;20043;-30
2022/04/25 07:35:54;;;;;;;19.27;14.25;;;;;;;;;;5072814;28;20045;-32
2022/04/25 07:38:20;;;;;;;21.38;13.35;;;;;;;;;;5072486;28;20048;-30
2022/04/25 07:40:46;;;;;;;18.83;14.10;;;;;;;;;;5072547;28;20128;-29
2022/04/25 07:43:12;;;;;;;21.45;15.20;;;;;;;;;;5072639;28;20462;-31
2022/04/25 07:45:39;;;;;;;22.48;16.25;;;;;;;;;;5073184;28;20098;-31
2022/04/25 07:48:05;;;;;;;22.65;16.95;;;;;;;;;;5072086;28;20037;-30
2022/04/25 07:50:32;;;;;;;21.05;15.25;;;;;;;;;;5072366;28;20046;-29
2022/04/25 07:52:58;;;;;;;22.92;17.35;;;;;;;;;;5071248;28;20047;-30
2022/04/25 07:55:24;;;;;;;21.48;16.98;;;;;;;;;;5072817;28;20554;-29
2022/04/25 07:57:50;;;;;;;23.80;16.08;;;;;;;;;;5072261;28;20409;-29
2022/04/25 08:00:16;;;;;;;21.58;15.15;;;;;;;;;;5072147;28;20044;-30
2022/04/25 08:02:42;;;;;;;20.55;16.02;;;;;;;;;;5071724;28;20601;-30
2022/04/25 08:05:08;;;;;;;21.42;15.07;;;;;;;;;;5072443;28;20123;-30
2022/04/25 08:07:36;;;;;;;18.73;14.38;;;;;;;;;;5072340;28;20040;-30
2022/04/25 08:10:02;;;;;;;19.92;15.00;;;;;;;;;;5071764;28;20491;-30
2022/04/25 08:18:01;;;;;;;18.80;14.60;;;;;;;;;;5063330;28;20049;-29
2022/04/25 08:20:33;;;;;;;19.38;15.43;;;;;;;;;;5052443;28;20236;-30
2022/04/25 08:22:59;;;;;;;21.55;14.18;;;;;;;;;;5063055;28;20533;-30
2022/04/25 08:25:25;;;;;;;20.98;15.98;;;;;;;;;;5071491;28;20059;-30
2022/04/25 08:27:52;;;;;;;19.52;15.45;;;;;;;;;;5071864;28;20525;-31
2022/04/25 08:30:19;;;;;;;21.15;15.80;;;;;;;;;;5071582;28;20036;-30
2022/04/25 08:32:46;;;;;;;20.48;15.07;;;;;;;;;;5070757;28;20032;-30
2022/04/25 08:35:12;;;;;;;19.73;15.27;;;;;;;;;;5072204;28;20044;-32
2022/04/25 08:37:39;;;;;;;22.02;14.82;;;;;;;;;;5071833;28;20037;-30
2022/04/25 08:40:05;;;;;;;20.63;14.52;;;;;;;;;;5071136;28;20047;-31
2022/04/25 08:42:31;;;;;;;23.30;15.70;;;;;;;;;;5071497;28;20044;-29
2022/04/25 08:44:59;;;;;;;25.02;15.38;;;;;;;;;;5071366;28;20392;-30
2022/04/25 08:47:29;;;;;;;20.33;15.18;;;;;;;;;;5071975;28;20036;-30
2022/04/25 08:49:58;;;;;;;23.38;15.32;;;;;;;;;;5071806;28;20037;-30
2022/04/25 08:52:26;;;;;;;24.25;15.82;;;;;;;;;;5071065;28;20033;-30
2022/04/25 08:54:52;;;;;;;23.58;15.63;;;;;;;;;;5070842;28;20032;-30
2022/04/25 08:57:18;;;;;;;24.42;16.05;;;;;;;;;;5071836;28;20045;-30
2022/04/25 08:59:45;;;;;;;20.52;15.52;;;;;;;;;;5070994;28;20109;-30
2022/04/25 09:02:12;;;;;;;24.25;16.15;;;;;;;;;;5071418;28;20048;-29
2022/04/25 09:04:38;;;;;;;20.95;15.23;;;;;;;;;;5070207;28;20549;-30
2022/04/25 09:07:04;;;;;;;22.35;15.65;;;;;;;;;;5071560;28;20043;-30
2022/04/25 09:09:31;;;;;;;22.55;14.23;;;;;;;;;;5071320;28;20040;-31
2022/04/25 09:12:09;;;;;;;24.08;15.40;;;;;;;;;;5070613;28;20449;-30
2022/04/25 09:14:36;;;;;;;23.35;15.35;;;;;;;;;;5071109;28;20067;-29
2022/04/25 09:17:03;;;;;;;21.05;14.93;;;;;;;;;;5070396;28;20036;-31
2022/04/25 09:19:30;;;;;;;21.35;15.00;;;;;;;;;;5070755;28;20123;-31
2022/04/25 09:21:56;;;;;;;22.02;15.25;;;;;;;;;;5070326;28;20495;-30
2022/04/25 09:24:24;;;;;;;21.10;14.20;;;;;;;;;;5070828;28;20041;-30
2022/04/25 09:26:52;;;;;;;23.25;15.00;;;;;;;;;;5069951;28;20112;-30
2022/04/25 09:29:25;;;;;;;22.33;14.32;;;;;;;;;;5070814;28;20041;-29
2022/04/25 09:31:51;;;;;;;20.58;14.88;;;;;;;;;;5070437;28;20043;-30
2022/04/25 09:34:59;;;;;;;19.88;13.85;;;;;;;;;;5070424;28;20269;-29
2022/04/25 09:37:06;;;;;;;19.00;13.88;;;;;;;;;;5069295;28;20051;-31
2022/04/25 09:39:32;;;;;;;19.13;14.80;;;;;;;;;;5070706;28;20045;-31
2022/04/25 09:42:00;;;;;;;19.83;14.38;;;;;;;;;;5070156;28;20043;-30
2022/04/25 09:44:27;;;;;;;19.13;13.80;;;;;;;;;;5070752;28;20402;-30
2022/04/25 09:46:53;;;;;;;18.58;12.73;;;;;;;;;;5069905;28;20036;-30
2022/04/25 09:49:22;;;;;;;16.30;12.77;;;;;;;;;;5070383;28;20125;-29
2022/04/25 09:52:00;;;;;;;16.92;12.35;;;;;;;;;;5070510;28;20526;-31
2022/04/25 09:54:26;;;;;;;14.82;11.15;;;;;;;;;;5070467;28;20137;-31
2022/04/25 09:56:53;;;;;;;14.88;11.30;;;;;;;;;;5070411;28;20493;-30
2022/04/25 09:59:21;;;;;;;12.15;10.30;;;;;;;;;;5070170;28;20036;-30
2022/04/25 10:02:00;;;;;;;13.10;10.88;;;;;;;;;;5070532;28;20094;-30
2022/04/25 10:04:33;;;;;;;12.57;10.32;;;;;;;;;;5052761;28;20056;-25
2022/04/25 10:07:00;;;;;;;14.88;11.05;;;;;;;;;;5071128;28;20040;-28
2022/04/25 10:09:31;;;;;;;14.15;11.40;;;;;;;;;;5070750;28;20036;-29
2022/04/25 10:12:01;;;;;;;14.23;10.40;;;;;;;;;;5070455;28;20406;-27
2022/04/25 10:14:28;;;;;;;14.30;10.25;;;;;;;;;;5070713;28;20098;-28
2022/04/25 10:16:57;;;;;;;13.65;10.13;;;;;;;;;;5070056;28;20128;-28
2022/04/25 10:19:24;;;;;;;12.15;10.10;;;;;;;;;;5069700;28;20036;-29
2022/04/25 10:21:52;;;;;;;11.45;10.23;;;;;;;;;;5070392;28;20089;-29
2022/04/25 10:24:18;;;;;;;12.82;11.05;;;;;;;;;;5070915;28;20086;-29
2022/04/25 10:26:45;;;;;;;14.07;10.73;;;;;;;;;;5049320;28;20033;-30
2022/04/25 10:29:14;;;;;;;12.20;10.40;;;;;;;;;;5066337;28;20498;-29
2022/04/25 10:31:41;;;;;;;11.52;9.57;;;;;;;;;;5070081;28;20036;-29
2022/04/25 10:34:08;;;;;;;12.07;10.57;;;;;;;;;;5070290;28;20048;-31
2022/04/25 10:36:37;;;;;;;11.50;9.63;;;;;;;;;;5070219;28;20066;-28
2022/04/25 10:39:16;;;;;;;12.75;10.00;;;;;;;;;;5070329;28;20044;-32
2022/04/25 10:44:28;;;;;;;13.52;10.20;;;;;;;;;;5070515;28;20055;-28
2022/04/25 10:47:06;;;;;;;12.20;9.93;;;;;;;;;;5070236;28;20037;-26
2022/04/25 10:49:35;;;;;;;12.90;10.50;;;;;;;;;;5072170;28;20490;-25
2022/04/25 10:52:01;;;;;;;14.10;10.38;;;;;;;;;;5074537;28;20064;-26
2022/04/25 10:54:28;;;;;;;13.65;10.02;;;;;;;;;;5074444;28;20036;-25
2022/04/25 10:57:11;;;;;;;11.55;10.15;;;;;;;;;;5074728;28;20044;-26
2022/04/25 10:59:40;;;;;;;12.43;10.88;;;;;;;;;;5074063;28;20051;-25
2022/04/25 11:02:22;;;;;;;12.13;10.27;;;;;;;;;;5074443;28;20043;-26
2022/04/25 11:05:08;;;;;;;12.15;10.90;;;;;;;;;;5074360;28;20379;-26
2022/04/25 11:07:35;;;;;;;14.07;10.88;;;;;;;;;;5074069;28;20041;-25
2022/04/25 11:10:02;;;;;;;16.02;11.40;;;;;;;;;;5074315;28;20049;-25
2022/04/25 11:12:47;;;;;;;16.20;11.65;;;;;;;;;;5074015;28;20521;-27
2022/04/25 11:15:13;;;;;;;13.93;11.18;;;;;;;;;;5074083;28;20076;-27
2022/04/25 11:17:59;;;;;;;12.90;10.80;;;;;;;;;;5074220;28;20041;-26
2022/04/25 11:20:47;;;;;;;13.23;11.73;;;;;;;;;;5071816;28;20028;-27
2022/04/25 11:23:28;;;;;;;14.18;11.60;;;;;;;;;;5073477;28;20044;-26
2022/04/25 11:25:55;;;;;;;12.95;11.55;;;;;;;;;;5074010;28;20040;-27
2022/04/25 11:28:22;;;;;;;14.00;10.88;;;;;;;;;;5073965;28;20040;-27
2022/04/25 11:31:07;;;;;;;12.57;10.82;;;;;;;;;;5073810;28;20128;-26
2022/04/25 11:33:43;;;;;;;14.52;11.45;;;;;;;;;;5055812;28;20028;-26
2022/04/25 11:36:11;;;;;;;11.98;10.70;;;;;;;;;;5073648;28;20579;-26
2022/04/25 11:41:25;;;;;;;12.65;10.07;;;;;;;;;;5073565;28;20045;-26
2022/04/25 11:43:51;;;;;;;13.55;10.38;;;;;;;;;;5073198;28;20064;-26
2022/04/25 11:46:17;;;;;;;11.00;9.95;;;;;;;;;;5073488;28;20040;-26
2022/04/25 11:48:50;;;;;;;12.43;9.80;;;;;;;;;;5073472;28;20102;-25
2022/04/25 11:51:26;;;;;;;9.88;8.88;;;;;;;;;;5073547;28;20041;-26
2022/04/25 11:53:57;;;;;;;10.50;8.75;;;;;;;;;;5073478;28;20036;-26
2022/04/25 11:56:23;;;;;;;10.65;9.43;;;;;;;;;;5073512;28;20448;-26
2022/04/25 11:58:49;;;;;;;11.70;9.55;;;;;;;;;;5055691;28;20048;-25
2022/04/25 12:01:32;;;;;;;11.80;8.98;;;;;;;;;;5072067;28;20095;-25
2022/04/25 12:04:17;;;;;;;9.63;8.65;;;;;;;;;;5072999;28;20048;-27
2022/04/25 12:07:06;;;;;;;9.93;9.02;;;;;;;;;;5073321;28;20379;-25
2022/04/25 12:17:53;;;;;;;10.98;9.30;;;;;;;;;;5072842;28;20044;-26
2022/04/25 12:20:21;;;;;;;16.20;9.20;;;;;;;;;;5073053;28;20047;-26
2022/04/25 12:22:53;;;;;;;11.27;9.25;;;;;;;;;;5072963;28;20032;-26
2022/04/25 12:25:21;;;;;;;10.70;9.18;;;;;;;;;;5072924;28;20040;-25
2022/04/25 12:28:05;;;;;;;11.07;9.18;;;;;;;;;;5072922;28;20041;-26
2022/04/25 12:30:43;;;;;;;10.05;8.85;;;;;;;;;;5072648;28;20093;-25
2022/04/25 12:33:10;;;;;;;10.65;9.60;;;;;;;;;;5072528;28;20398;-26
2022/04/25 12:35:37;;;;;;;10.50;9.43;;;;;;;;;;5072537;28;20036;-26
2022/04/25 12:38:04;;;;;;;10.95;9.68;;;;;;;;;;5072304;28;20502;-27
2022/04/25 12:40:32;;;;;;;13.48;10.38;;;;;;;;;;5072003;28;20071;-26
2022/04/25 12:42:58;;;;;;;11.05;9.52;;;;;;;;;;5037592;28;20553;-27
2022/04/25 12:45:24;;;;;;;11.18;10.02;;;;;;;;;;5072417;28;20036;-25
2022/04/25 12:47:54;;;;;;;13.90;9.38;;;;;;;;;;5068724;28;20041;-26
2022/04/25 12:50:39;;;;;;;10.88;9.77;;;;;;;;;;5052035;28;20566;-25
2022/04/25 12:53:06;;;;;;;11.35;9.63;;;;;;;;;;5051097;28;20475;-27
2022/04/25 12:55:42;;;;;;;15.13;10.10;;;;;;;;;;5054726;28;20048;-25
2022/04/25 12:58:08;;;;;;;12.23;10.20;;;;;;;;;;5072367;28;20393;-26
2022/04/25 13:00:41;;;;;;;11.68;10.27;;;;;;;;;;5072314;28;20043;-26
2022/04/25 13:03:08;;;;;;;15.60;11.00;;;;;;;;;;5072273;28;20445;-26
2022/04/25 13:05:34;;;;;;;14.82;11.20;;;;;;;;;;5071919;28;20410;-25
2022/04/25 13:08:01;;;;;;;13.50;11.27;;;;;;;;;;5071699;28;20513;-25
2022/04/25 13:10:27;;;;;;;12.70;11.35;;;;;;;;;;5072044;28;20302;-27
2022/04/25 13:12:56;;;;;;;13.32;10.75;;;;;;;;;;5071873;28;20360;-26
2022/04/25 13:15:25;;;;;;;16.27;12.27;;;;;;;;;;5071514;28;20083;-25
2022/04/25 13:17:52;;;;;;;14.45;11.65;;;;;;;;;;5071546;28;20040;-26
2022/04/25 13:20:20;;;;;;;11.48;10.27;;;;;;;;;;5071264;28;20072;-26
2022/04/25 13:22:46;;;;;;;12.60;11.30;;;;;;;;;;5071862;28;20097;-24
2022/04/25 13:25:14;;;;;;;15.02;12.38;;;;;;;;;;5071373;28;20124;-26
2022/04/25 13:27:41;;;;;;;12.93;11.50;;;;;;;;;;5071601;28;20526;-25
2022/04/25 13:30:14;;;;;;;13.13;11.23;;;;;;;;;;5071494;28;20079;-25
2022/04/25 13:32:44;;;;;;;12.40;11.20;;;;;;;;;;5071582;28;20124;-26
2022/04/25 13:35:11;;;;;;;14.10;12.18;;;;;;;;;;5071885;28;20440;-25
2022/04/25 13:37:37;;;;;;;13.50;11.48;;;;;;;;;;5071372;28;20056;-27
2022/04/25 13:40:04;;;;;;;15.25;12.68;;;;;;;;;;5071713;28;20494;-25
2022/04/25 13:42:30;;;;;;;11.95;10.45;;;;;;;;;;5071006;28;20178;-25
2022/04/25 13:44:56;;;;;;;15.85;11.88;;;;;;;;;;5071622;28;20037;-26
2022/04/25 13:47:23;;;;;;;13.68;11.68;;;;;;;;;;5071425;28;20045;-25
2022/04/25 13:49:49;;;;;;;14.65;11.63;;;;;;;;;;5071761;28;20041;-26
2022/04/25 13:52:15;;;;;;;13.68;11.57;;;;;;;;;;5071483;28;20486;-27
2022/04/25 13:54:41;;;;;;;14.30;12.88;;;;;;;;;;5071503;28;20513;-26
2022/04/25 13:57:09;;;;;;;17.63;12.20;;;;;;;;;;5071292;28;20058;-25
2022/04/25 13:59:35;;;;;;;13.00;11.60;;;;;;;;;;5071351;28;20391;-25
2022/04/25 14:03:05;;;;;;;13.75;12.05;;;;;;;;;;5071130;28;20391;-26
2022/04/25 14:04:48;;;;;;;19.45;13.15;;;;;;;;;;5070846;28;20048;-27
2022/04/25 14:07:14;;;;;;;17.02;12.60;;;;;;;;;;5071036;28;20052;-26
2022/04/25 14:09:40;;;;;;;16.27;13.25;;;;;;;;;;5070839;28;20076;-25
2022/04/25 14:12:06;;;;;;;14.93;13.32;;;;;;;;;;5053209;28;20094;-28
2022/04/25 14:14:32;;;;;;;18.75;14.68;;;;;;;;;;5071304;28;20112;-26
2022/04/25 14:17:00;;;;;;;15.10;13.40;;;;;;;;;;5071306;28;20048;-25
2022/04/25 14:19:26;;;;;;;16.00;14.02;;;;;;;;;;5071428;28;20410;-27
2022/04/25 14:21:52;;;;;;;16.60;14.68;;;;;;;;;;5071077;28;20043;-26
2022/04/25 14:24:20;;;;;;;20.30;15.82;;;;;;;;;;5071779;28;20044;-27
2022/04/25 14:26:49;;;;;;;18.17;14.35;;;;;;;;;;5075342;28;20079;-26
2022/04/25 14:29:15;;;;;;;18.05;15.63;;;;;;;;;;5075580;28;20097;-26
2022/04/25 14:31:41;;;;;;;18.45;14.70;;;;;;;;;;5074987;28;20090;-27
2022/04/25 14:34:08;;;;;;;16.15;14.55;;;;;;;;;;5074853;28;20159;-25
2022/04/25 14:36:34;;;;;;;20.02;14.45;;;;;;;;;;5074950;28;20041;-27
2022/04/25 14:39:00;;;;;;;18.27;15.23;;;;;;;;;;5075384;28;20037;-25
2022/04/25 14:41:27;;;;;;;17.92;14.93;;;;;;;;;;5074904;28;20509;-25
2022/04/25 14:43:54;;;;;;;16.95;15.20;;;;;;;;;;5074687;28;20145;-26
2022/04/25 14:46:20;;;;;;;16.73;15.02;;;;;;;;;;5074865;28;20036;-29
2022/04/25 14:48:46;;;;;;;17.90;15.15;;;;;;;;;;5074845;28;20113;-25
2022/04/25 14:56:41;;;;;;;18.75;16.88;;;;;;;;;;5074668;28;20493;-27
2022/04/25 14:59:07;;;;;;;16.52;14.82;;;;;;;;;;5056822;28;20101;-26
2022/04/25 15:01:34;;;;;;;17.83;15.43;;;;;;;;;;5074659;28;20041;-27
2022/04/25 15:04:00;;;;;;;17.23;15.43;;;;;;;;;;5074454;28;20041;-27
2022/04/25 15:06:26;;;;;;;16.98;14.88;;;;;;;;;;5074336;28;20375;-26